메인 페이지
METAR-TAF:

METAR-TAF

공항 :

제주국제공항

제주, 대한민국

위도: 33-30N, 경도: 126-30E, 고도: 36m

현재 날씨관측

예보는 18분 전, 15:00시(UTC)에 발표되었습니다.
7kt북동풍과 풍을 오가는
온도 28°C
습도 74%
기압 1005 hPa
시정 10km 이상
고도 3000ft 상공 구름 보통
고도 12000ft 상공 구름 많음

METAR: RKPC 151500Z 08007KT 040V100 9999 SCT030 BKN120 28/23 Q1005 NOSIG

시각: 00:18 (15:18 UTC)

예보

예보는 2 시간 3분 전, 13:15시(UTC)에 발표되었습니다.
예보 대상 시간: 15일 13시부터 16일 18시까지 (UTC)
동남동10kt
시정 10km 이상
고도 3000ft 상공 구름 보통
일시적
15일 13시부터 15일 15시까지 (UTC)
시정: 6000m
고도 2500ft 상공 구름 많음
약한비
전환 중
15일 22시부터 15일 23시까지 (UTC)
16kt
시정: 4200m
고도 1500ft 상공 구름 조금
고도 3000ft 상공 구름 많음
고도 10000ft 상공 흐림
약한비
전환 중
16일 06시부터 16일 07시까지 (UTC)
시정: 7000m
전환 중
16일 14시부터 16일 15시까지 (UTC)
22kt, 순간 최대 풍속 33kt
고도 3000ft 상공 구름 보통
고도 15000ft 상공 구름 많음

TAF: RKPC 151315Z 1513/1618 11010KT 9999 SCT030 TN27/1520Z TX30/1605Z TEMPO 1513/1515 6000 -RA BKN025 BECMG 1522/1523 10016KT 4200 -RA FEW015 BKN030 OVC100 BECMG 1606/1607 7000 NSW BECMG 1614/1615 09022G33KT SCT030 BKN150

4,000개 이상의 공항 관측 자료 및 예보 (METAR 및 TAF 보고).

지도상에서 검색 가능한 기상관측소가 노란 점과 빨간 점으로 표시되어 있습니다.

기상관측소 명을 보려면 표시 위로 마우스를 이동하세요.

날씨 관측과 예보를 보려면 클릭하세요.

지도 변경 : 확대하려면 엑스 표시가 있는 녹색 버튼, 축소하려면 빼기 표시가 있는 녹색 버튼, 다음 페이지의 지도를 보려면 녹색 화살표를 클릭하세요.


METAR-TAF: